Time;durP1;ratioP1;P1;durP2;ratioP2;P2;SDS_P1;SDS_P2;PMS_P1;PMS_P2;Temp;Humidity;BMP_temperature;BMP_pressure;BME280_temperature;BME280_humidity;BME280_pressure;Samples;Min_cycle;Max_cycle;Signal;HPM_P1;HPM_P2
2021/07/27 00:01:09;;;;;;;10.53;9.57;;;18.00;99.90;;;;;;4996488;28;20472;-59
2021/07/27 00:03:37;;;;;;;11.53;10.43;;;18.00;99.90;;;;;;4988195;28;20497;-59
2021/07/27 00:06:04;;;;;;;11.30;10.10;;;18.00;99.90;;;;;;4979319;28;20477;-58
2021/07/27 00:08:31;;;;;;;12.00;10.50;;;18.00;99.90;;;;;;4981115;28;20461;-60
2021/07/27 00:11:23;;;;;;;11.37;10.20;;;18.10;99.90;;;;;;4981363;28;20473;-59
2021/07/27 00:13:51;;;;;;;11.07;10.03;;;18.00;99.90;;;;;;4980788;28;20971;-56
2021/07/27 00:16:22;;;;;;;10.97;10.03;;;18.00;99.90;;;;;;4981020;28;20461;-59
2021/07/27 00:18:49;;;;;;;11.90;10.70;;;17.90;99.90;;;;;;4980770;28;20559;-56
2021/07/27 00:21:18;;;;;;;12.00;10.00;;;18.00;99.90;;;;;;4980640;28;20505;-58
2021/07/27 00:23:45;;;;;;;10.80;9.73;;;17.90;99.90;;;;;;4981213;28;20475;-58
2021/07/27 00:26:14;;;;;;;10.43;9.53;;;17.90;99.90;;;;;;4981106;28;20871;-55
2021/07/27 00:28:44;;;;;;;10.73;9.77;;;17.90;99.90;;;;;;4980581;28;20466;-60
2021/07/27 00:31:20;;;;;;;10.47;9.47;;;17.80;99.90;;;;;;4981028;28;20473;-59
2021/07/27 01:12:14;;;;;;;15.63;14.03;;;17.90;99.90;;;;;;5050695;23;20584;-61
2021/07/27 01:14:44;;;;;;;14.90;13.40;;;17.90;99.90;;;;;;4981183;28;20465;-62
2021/07/27 01:17:12;;;;;;;17.07;15.57;;;17.90;99.90;;;;;;4980016;28;20473;-62
2021/07/27 01:19:52;;;;;;;15.70;14.30;;;18.00;99.90;;;;;;4980323;28;20508;-62
2021/07/27 01:42:07;;;;;;;21.03;18.93;;;18.00;99.90;;;;;;4979181;28;20529;-62
2021/07/27 01:44:36;;;;;;;22.93;20.53;;;18.00;99.90;;;;;;4979799;28;20597;-62
2021/07/27 01:47:03;;;;;;;23.03;21.03;;;17.90;99.90;;;;;;4981520;28;20529;-62
2021/07/27 01:49:30;;;;;;;22.90;20.80;;;18.00;99.90;;;;;;4979353;28;20466;-61
2021/07/27 01:51:58;;;;;;;24.23;22.00;;;18.00;99.90;;;;;;4978055;28;20473;-62
2021/07/27 01:54:30;;;;;;;24.53;22.00;;;17.90;99.90;;;;;;4979471;28;20553;-61
2021/07/27 01:56:58;;;;;;;23.53;21.33;;;17.90;99.90;;;;;;4978746;28;20474;-61
2021/07/27 01:59:25;;;;;;;21.80;19.80;;;17.90;99.90;;;;;;4979197;28;20465;-61
2021/07/27 02:01:52;;;;;;;22.80;20.67;;;17.80;99.90;;;;;;4979322;28;20474;-61
2021/07/27 02:04:19;;;;;;;22.27;20.00;;;17.90;99.90;;;;;;4969580;28;20494;-61
2021/07/27 02:06:46;;;;;;;23.20;21.00;;;17.80;99.90;;;;;;4973296;28;20455;-61
2021/07/27 02:09:15;;;;;;;25.57;22.90;;;17.80;99.90;;;;;;4965700;28;20526;-61
2021/07/27 02:11:47;;;;;;;25.30;23.03;;;17.70;99.90;;;;;;4978600;28;20493;-61
2021/07/27 02:14:16;;;;;;;25.97;23.20;;;17.70;99.90;;;;;;4964622;28;20459;-61
2021/07/27 02:16:44;;;;;;;26.90;24.33;;;17.70;99.90;;;;;;4960058;29;20466;-61
2021/07/27 02:19:11;;;;;;;26.17;23.67;;;17.70;99.90;;;;;;4959408;29;20896;-62
2021/07/27 02:21:38;;;;;;;27.33;24.77;;;17.80;99.90;;;;;;4959247;28;20809;-61
2021/07/27 02:24:05;;;;;;;24.23;21.70;;;17.70;99.90;;;;;;4958930;29;20498;-61
2021/07/27 02:26:33;;;;;;;26.33;23.67;;;17.70;99.90;;;;;;4959550;28;20591;-61
2021/07/27 02:29:01;;;;;;;31.40;25.37;;;17.70;99.90;;;;;;4959016;29;20525;-62
2021/07/27 02:31:32;;;;;;;28.03;25.30;;;17.70;99.90;;;;;;4959619;29;20506;-61
2021/07/27 02:34:02;;;;;;;28.97;26.10;;;17.70;99.90;;;;;;4959840;29;20546;-61
2021/07/27 02:36:29;;;;;;;29.03;25.87;;;17.70;99.90;;;;;;4959651;29;20572;-61
2021/07/27 02:38:56;;;;;;;28.20;25.50;;;17.70;99.90;;;;;;4958920;28;20440;-61
2021/07/27 02:41:33;;;;;;;29.47;26.40;;;17.80;99.90;;;;;;4958900;29;20474;-61
2021/07/27 02:44:03;;;;;;;29.67;26.60;;;17.80;99.90;;;;;;4958878;29;20490;-61
2021/07/27 02:46:30;;;;;;;29.67;26.77;;;17.70;99.90;;;;;;4959684;29;20441;-61
2021/07/27 02:49:03;;;;;;;27.53;24.83;;;17.70;99.90;;;;;;4959002;29;20473;-61
2021/07/27 02:51:31;;;;;;;27.50;24.53;;;17.70;99.90;;;;;;4958848;29;20515;-61
2021/07/27 02:53:58;;;;;;;27.90;25.30;;;17.70;99.90;;;;;;4958725;29;20469;-61
2021/07/27 02:56:27;;;;;;;26.27;23.67;;;17.70;99.90;;;;;;4959700;29;20475;-61
2021/07/27 02:58:54;;;;;;;27.73;25.03;;;17.70;99.90;;;;;;4958880;29;20581;-61
2021/07/27 03:01:22;;;;;;;28.77;25.70;;;17.70;99.90;;;;;;4958704;29;20474;-61
2021/07/27 03:03:50;;;;;;;28.57;25.67;;;17.70;99.90;;;;;;4959673;28;20545;-61
2021/07/27 03:06:18;;;;;;;28.20;25.30;;;17.70;99.90;;;;;;4975268;28;20536;-61
2021/07/27 03:09:02;;;;;;;29.57;26.43;;;17.70;99.90;;;;;;4978286;28;20458;-61
2021/07/27 03:11:29;;;;;;;31.17;27.63;;;17.70;99.90;;;;;;4978156;28;20504;-61
2021/07/27 03:13:57;;;;;;;32.07;28.53;;;17.70;99.90;;;;;;4977926;28;20556;-61
2021/07/27 03:16:26;;;;;;;32.37;29.03;;;17.70;99.90;;;;;;4978319;28;20497;-61
2021/07/27 03:18:59;;;;;;;33.37;29.90;;;17.60;99.90;;;;;;4978324;28;20654;-61
2021/07/27 03:21:28;;;;;;;31.57;28.17;;;17.70;99.90;;;;;;4977969;28;20458;-61
2021/07/27 03:23:55;;;;;;;30.60;26.50;;;17.70;99.90;;;;;;4978200;28;20791;-61
2021/07/27 03:26:23;;;;;;;29.10;26.10;;;17.70;99.90;;;;;;4978249;28;20468;-61
2021/07/27 03:28:51;;;;;;;30.20;27.10;;;17.70;99.90;;;;;;4978441;28;20470;-61
2021/07/27 03:31:18;;;;;;;28.90;25.80;;;17.70;99.90;;;;;;4978363;28;20468;-61
2021/07/27 03:33:47;;;;;;;27.47;24.67;;;17.80;99.90;;;;;;4978058;28;20470;-61
2021/07/27 03:36:14;;;;;;;29.10;26.30;;;17.80;99.90;;;;;;4978100;28;20477;-61
2021/07/27 03:38:41;;;;;;;27.17;24.37;;;17.80;99.90;;;;;;4978155;28;20462;-61
2021/07/27 03:41:10;;;;;;;28.03;24.87;;;17.80;99.90;;;;;;4981167;28;20790;-61
2021/07/27 03:43:38;;;;;;;25.57;22.87;;;17.80;99.90;;;;;;4981566;28;20537;-61
2021/07/27 03:46:06;;;;;;;27.03;24.30;;;17.80;99.90;;;;;;4981534;28;20484;-61
2021/07/27 03:48:33;;;;;;;27.40;24.03;;;17.80;99.90;;;;;;4981860;28;20961;-61
2021/07/27 03:51:02;;;;;;;26.10;23.67;;;17.80;99.90;;;;;;4981822;28;20768;-61
2021/07/27 03:53:29;;;;;;;29.23;26.33;;;17.80;99.90;;;;;;4981155;28;20472;-61
2021/07/27 03:55:56;;;;;;;31.47;28.20;;;17.70;99.90;;;;;;4981454;28;20468;-61
2021/07/27 03:58:23;;;;;;;32.93;29.67;;;17.60;99.90;;;;;;4981958;28;20802;-61
2021/07/27 04:00:51;;;;;;;34.57;30.87;;;17.60;99.90;;;;;;4981462;28;20440;-61
2021/07/27 04:03:18;;;;;;;37.87;34.13;;;17.60;99.90;;;;;;4977171;28;20482;-61
2021/07/27 04:05:45;;;;;;;42.27;35.53;;;17.60;99.90;;;;;;4976018;28;20940;-61
2021/07/27 04:08:14;;;;;;;40.27;35.90;;;17.60;99.90;;;;;;4981315;28;20457;-61
2021/07/27 04:10:41;;;;;;;43.47;38.80;;;17.60;99.90;;;;;;4980800;28;20780;-61
2021/07/27 04:13:08;;;;;;;44.20;39.33;;;17.60;99.90;;;;;;4981276;28;20462;-61
2021/07/27 04:15:44;;;;;;;43.53;38.87;;;17.60;99.90;;;;;;4980891;28;20462;-61
2021/07/27 04:18:11;;;;;;;42.70;38.10;;;17.50;99.90;;;;;;4981330;28;20470;-61
2021/07/27 04:20:38;;;;;;;44.37;39.37;;;17.50;99.90;;;;;;4981048;28;20489;-60
2021/07/27 04:23:06;;;;;;;44.83;39.83;;;17.50;99.90;;;;;;4980943;28;20465;-60
2021/07/27 04:25:35;;;;;;;45.67;39.10;;;17.50;99.90;;;;;;4981171;28;20958;-60
2021/07/27 04:28:05;;;;;;;44.13;38.20;;;17.50;99.90;;;;;;4980985;28;20474;-60
2021/07/27 04:30:34;;;;;;;45.30;38.87;;;17.50;99.90;;;;;;4981008;28;20469;-60
2021/07/27 04:33:01;;;;;;;46.33;37.40;;;17.40;99.90;;;;;;4981118;28;20466;-60
2021/07/27 04:35:30;;;;;;;48.70;40.07;;;17.50;99.90;;;;;;4980511;28;20462;-60
2021/07/27 04:37:59;;;;;;;44.43;39.27;;;17.50;99.90;;;;;;4980767;28;20465;-60
2021/07/27 04:40:26;;;;;;;46.40;39.37;;;17.50;99.90;;;;;;4979951;28;20470;-60
2021/07/27 04:42:54;;;;;;;41.93;37.27;;;17.60;99.90;;;;;;4980940;28;20461;-60
2021/07/27 04:45:21;;;;;;;49.37;39.70;;;17.60;99.90;;;;;;4980033;28;20537;-60
2021/07/27 04:47:49;;;;;;;43.03;36.33;;;17.60;99.90;;;;;;4981178;28;20902;-60
2021/07/27 04:50:16;;;;;;;42.47;36.53;;;17.70;99.90;;;;;;4980180;28;20466;-60
2021/07/27 04:52:49;;;;;;;40.40;36.00;;;17.60;99.90;;;;;;4980664;28;20466;-60
2021/07/27 04:55:17;;;;;;;40.23;34.00;;;17.70;99.90;;;;;;4980718;28;20458;-60
2021/07/27 05:38:09;;;;;;;26.70;21.20;;;18.30;99.90;;;;;;5145821;23;20498;-57
2021/07/27 05:40:36;;;;;;;24.30;21.90;;;18.20;99.90;;;;;;4979237;28;20529;-55
2021/07/27 05:43:03;;;;;;;22.80;20.40;;;18.20;99.90;;;;;;4979549;28;20810;-57
2021/07/27 05:45:30;;;;;;;21.30;19.00;;;18.20;99.90;;;;;;4979625;28;20505;-56
2021/07/27 05:47:57;;;;;;;21.67;19.57;;;18.20;99.90;;;;;;4979529;28;20461;-54
2021/07/27 05:50:26;;;;;;;21.20;18.97;;;18.20;99.90;;;;;;4979414;28;20462;-58
2021/07/27 05:52:57;;;;;;;22.60;20.30;;;18.40;99.90;;;;;;4979260;28;20930;-58
2021/07/27 05:55:26;;;;;;;20.77;17.87;;;18.60;99.90;;;;;;4979562;28;20462;-58
2021/07/27 05:57:56;;;;;;;20.20;18.10;;;18.80;99.90;;;;;;4979635;28;20808;-59
2021/07/27 06:00:23;;;;;;;21.50;18.70;;;18.90;99.90;;;;;;4979507;28;20469;-59
2021/07/27 06:02:50;;;;;;;21.57;17.87;;;19.00;99.90;;;;;;4975675;28;20486;-59
2021/07/27 06:05:17;;;;;;;20.23;18.13;;;19.00;99.90;;;;;;4973462;28;20496;-54
2021/07/27 06:07:45;;;;;;;18.07;16.00;;;19.10;99.90;;;;;;4979187;28;20465;-53
2021/07/27 06:10:15;;;;;;;16.80;15.03;;;19.40;99.90;;;;;;4978417;28;20903;-55
2021/07/27 06:12:43;;;;;;;18.87;16.97;;;19.70;99.90;;;;;;4978769;28;20466;-54
2021/07/27 06:15:12;;;;;;;17.40;14.83;;;19.90;99.90;;;;;;4979008;28;20813;-53
2021/07/27 06:17:39;;;;;;;17.50;15.80;;;20.10;99.90;;;;;;4979282;28;20440;-56
2021/07/27 06:20:07;;;;;;;17.77;15.47;;;20.30;99.90;;;;;;4978599;28;20474;-57
2021/07/27 06:22:37;;;;;;;17.37;15.53;;;20.30;99.90;;;;;;4978480;28;20462;-50
2021/07/27 06:25:10;;;;;;;19.57;15.13;;;20.30;99.90;;;;;;4978850;28;20980;-54
2021/07/27 06:27:39;;;;;;;16.27;14.67;;;20.10;99.90;;;;;;4979147;28;20545;-54
2021/07/27 07:07:50;;;;;;;13.60;12.37;;;21.40;99.90;;;;;;3267572;23;20478;-57
2021/07/27 07:10:17;;;;;;;13.93;12.57;;;21.30;99.90;;;;;;4939801;29;20524;-58
2021/07/27 07:12:46;;;;;;;15.27;13.67;;;21.20;99.90;;;;;;4940021;29;20459;-55
2021/07/27 07:15:14;;;;;;;15.27;13.67;;;21.30;99.90;;;;;;4943792;29;20470;-55
2021/07/27 07:17:41;;;;;;;14.20;12.73;;;21.20;99.90;;;;;;4943957;29;20471;-54
2021/07/27 07:20:11;;;;;;;16.20;14.50;;;21.40;99.90;;;;;;4943715;29;20470;-56
2021/07/27 07:22:38;;;;;;;14.90;13.43;;;21.40;99.90;;;;;;4943489;29;20460;-56
2021/07/27 07:25:09;;;;;;;13.10;11.90;;;21.50;99.90;;;;;;4943255;29;20768;-57
2021/07/27 07:27:37;;;;;;;13.50;11.80;;;21.90;99.90;;;;;;4943388;29;20526;-58
2021/07/27 07:30:05;;;;;;;11.83;10.83;;;22.10;99.90;;;;;;4942850;29;20789;-58
2021/07/27 07:32:34;;;;;;;12.23;11.13;;;22.30;99.90;;;;;;4943172;29;20758;-58
2021/07/27 07:35:03;;;;;;;12.80;11.50;;;22.60;99.90;;;;;;4943557;29;20468;-58
2021/07/27 07:37:30;;;;;;;13.27;12.07;;;22.60;99.90;;;;;;4943572;29;20471;-54
2021/07/27 07:39:57;;;;;;;13.13;11.43;;;22.70;99.90;;;;;;4943005;29;20499;-57
2021/07/27 07:42:25;;;;;;;10.60;9.70;;;22.70;99.90;;;;;;4943151;29;20467;-57
2021/07/27 07:44:53;;;;;;;11.63;10.67;;;22.70;99.90;;;;;;4943375;29;20518;-55
2021/07/27 07:47:23;;;;;;;13.30;11.57;;;22.80;99.90;;;;;;4942640;29;20476;-55
2021/07/27 07:49:58;;;;;;;13.80;12.47;;;22.60;99.90;;;;;;4943081;29;20475;-54
2021/07/27 07:52:25;;;;;;;12.30;11.20;;;22.20;99.90;;;;;;4942832;29;20849;-57
2021/07/27 07:54:52;;;;;;;12.70;11.50;;;22.20;99.90;;;;;;4943515;29;20463;-58
2021/07/27 07:57:19;;;;;;;13.40;12.10;;;21.90;99.90;;;;;;4938570;29;20757;-56
2021/07/27 07:59:47;;;;;;;12.83;11.50;;;21.90;99.90;;;;;;4940969;29;20464;-57
2021/07/27 08:02:14;;;;;;;13.60;12.30;;;21.90;99.90;;;;;;4942451;29;20478;-58
2021/07/27 08:04:41;;;;;;;12.27;10.83;;;21.80;99.90;;;;;;4926569;29;20781;-57
2021/07/27 08:07:09;;;;;;;12.63;11.53;;;22.00;99.90;;;;;;4924507;29;20487;-52
2021/07/27 08:09:36;;;;;;;12.00;10.80;;;22.30;99.90;;;;;;4932611;29;20468;-57
2021/07/27 08:12:03;;;;;;;11.63;10.63;;;22.40;99.90;;;;;;4936811;29;20464;-57
2021/07/27 08:14:30;;;;;;;14.80;12.30;;;22.00;99.90;;;;;;4934338;29;20861;-53
2021/07/27 08:16:59;;;;;;;12.67;11.47;;;21.70;99.90;;;;;;4942631;29;20463;-57
2021/07/27 08:19:26;;;;;;;10.97;10.07;;;21.60;99.90;;;;;;4941712;29;20579;-53
2021/07/27 08:21:53;;;;;;;11.87;10.77;;;21.60;99.90;;;;;;4934222;29;20439;-51
2021/07/27 08:24:20;;;;;;;12.67;11.47;;;21.70;99.90;;;;;;4923743;29;20834;-58
2021/07/27 08:26:49;;;;;;;11.53;10.53;;;22.00;99.90;;;;;;4923239;29;20917;-53
2021/07/27 08:29:16;;;;;;;11.20;10.30;;;22.40;99.90;;;;;;4923247;29;20520;-55
2021/07/27 08:31:44;;;;;;;9.87;8.97;;;23.00;99.90;;;;;;4923183;29;20468;-57
2021/07/27 08:34:17;;;;;;;10.73;9.80;;;23.50;99.90;;;;;;4943694;29;20554;-56
2021/07/27 08:36:47;;;;;;;10.00;9.20;;;24.20;99.90;;;;;;4961877;29;20490;-52
2021/07/27 08:39:15;;;;;;;11.90;10.67;;;24.40;98.40;;;;;;4939810;29;21474;-56
2021/07/27 08:41:46;;;;;;;10.63;9.53;;;24.40;95.20;;;;;;4923012;29;20476;-54
2021/07/27 08:44:18;;;;;;;11.83;10.50;;;24.00;96.10;;;;;;4922833;29;20488;-55
2021/07/27 08:46:47;;;;;;;12.23;11.13;;;23.80;98.10;;;;;;4923266;29;20500;-58
2021/07/27 08:49:16;;;;;;;11.70;10.57;;;23.90;97.90;;;;;;4922744;29;20469;-56
2021/07/27 08:51:48;;;;;;;11.60;10.57;;;24.00;99.20;;;;;;4940850;29;20467;-58
2021/07/27 08:54:17;;;;;;;10.77;9.70;;;24.50;99.20;;;;;;4942112;29;20468;-58
2021/07/27 08:56:50;;;;;;;10.90;10.10;;;24.50;97.00;;;;;;4943400;29;20464;-58
2021/07/27 08:59:18;;;;;;;14.03;12.73;;;24.70;96.90;;;;;;4949928;29;20455;-58
2021/07/27 09:01:45;;;;;;;17.43;15.53;;;24.50;96.10;;;;;;4944238;29;20468;-58
2021/07/27 09:04:13;;;;;;;18.93;17.13;;;24.20;96.50;;;;;;4932379;29;20935;-55
2021/07/27 09:06:42;;;;;;;22.93;20.60;;;24.80;97.20;;;;;;4922614;29;20474;-58
2021/07/27 09:09:10;;;;;;;27.03;24.13;;;24.70;94.70;;;;;;4922135;29;20479;-58
2021/07/27 09:11:47;;;;;;;29.07;26.20;;;24.20;95.80;;;;;;4922560;29;20473;-55
2021/07/27 09:14:16;;;;;;;26.87;24.17;;;24.40;96.40;;;;;;4923097;29;20933;-54
2021/07/27 09:16:44;;;;;;;27.90;25.30;;;24.90;95.50;;;;;;4928285;29;20523;-56
2021/07/27 09:19:11;;;;;;;27.67;25.27;;;25.20;95.20;;;;;;4941694;29;20562;-57
2021/07/27 09:21:43;;;;;;;25.33;22.93;;;25.50;92.90;;;;;;4939674;29;20474;-55
2021/07/27 09:24:13;;;;;;;25.83;23.43;;;25.80;92.10;;;;;;4940875;29;20562;-54
2021/07/27 09:26:40;;;;;;;25.60;23.17;;;26.00;91.80;;;;;;4925427;29;20499;-56
2021/07/27 09:29:09;;;;;;;24.97;22.57;;;25.90;90.20;;;;;;4921988;29;20480;-53
2021/07/27 09:31:38;;;;;;;25.67;23.47;;;25.70;90.90;;;;;;4922269;29;20893;-58
2021/07/27 09:34:11;;;;;;;25.07;22.77;;;25.90;90.80;;;;;;4922022;29;20500;-58
2021/07/27 09:36:45;;;;;;;27.87;25.57;;;25.70;90.00;;;;;;4932522;29;20471;-56
2021/07/27 09:39:15;;;;;;;26.60;24.00;;;25.50;90.00;;;;;;4939034;29;20464;-53
2021/07/27 09:41:42;;;;;;;26.10;23.80;;;25.90;90.00;;;;;;4940800;29;20475;-56
2021/07/27 09:44:11;;;;;;;26.40;24.07;;;26.10;87.10;;;;;;4928647;29;20468;-58
2021/07/27 09:46:39;;;;;;;25.17;22.97;;;26.40;84.90;;;;;;4921983;29;20532;-55
2021/07/27 09:49:06;;;;;;;26.23;23.83;;;26.70;85.70;;;;;;4922810;29;20438;-59
2021/07/27 09:51:33;;;;;;;24.50;22.30;;;26.70;83.40;;;;;;4921621;29;20468;-58
2021/07/27 09:54:06;;;;;;;24.67;22.57;;;26.80;84.70;;;;;;4923387;29;20469;-58
2021/07/27 09:56:33;;;;;;;26.40;24.10;;;26.70;83.90;;;;;;4921606;29;20460;-58
2021/07/27 09:59:02;;;;;;;28.03;25.60;;;26.60;82.70;;;;;;4930320;29;20460;-58
2021/07/27 10:01:30;;;;;;;24.17;21.70;;;26.70;83.80;;;;;;4940715;29;20756;-58
2021/07/27 10:04:03;;;;;;;20.30;18.40;;;27.10;83.70;;;;;;4929693;29;20830;-57
2021/07/27 10:06:33;;;;;;;20.67;18.90;;;27.30;82.10;;;;;;4940730;29;20774;-58
2021/07/27 10:09:01;;;;;;;21.10;19.40;;;26.80;82.60;;;;;;4938949;29;20487;-54
2021/07/27 10:11:43;;;;;;;18.33;16.97;;;26.70;81.40;;;;;;4940222;29;20813;-57
2021/07/27 10:14:12;;;;;;;17.33;15.73;;;26.50;82.00;;;;;;4940406;29;20503;-57
2021/07/27 10:16:39;;;;;;;20.10;18.30;;;26.70;82.20;;;;;;4940439;29;20468;-49
2021/07/27 10:19:16;;;;;;;15.33;13.97;;;26.60;81.40;;;;;;4938801;29;20464;-58
2021/07/27 10:21:44;;;;;;;17.10;15.60;;;27.40;82.30;;;;;;4940249;29;20474;-56
2021/07/27 12:17:08;;;;;;;15.43;14.07;;;23.70;99.90;;;;;;4997162;28;20504;-63
2021/07/27 12:19:35;;;;;;;15.27;13.93;;;24.10;99.90;;;;;;5001233;28;20898;-62
2021/07/27 12:22:02;;;;;;;14.63;13.33;;;25.10;99.90;;;;;;5000152;28;20531;-61
2021/07/27 13:37:16;;;;;;;8.50;7.70;;;27.10;69.40;;;;;;2201577;23;21876;-57
2021/07/27 13:39:46;;;;;;;8.60;7.80;;;27.50;69.70;;;;;;4940081;29;20456;-57
2021/07/27 13:42:13;;;;;;;8.57;7.67;;;27.90;66.30;;;;;;4941957;29;20471;-57
2021/07/27 13:44:40;;;;;;;9.50;8.30;;;28.00;66.20;;;;;;4940940;29;20956;-56
2021/07/27 15:38:55;;;;;;;7.67;6.87;;;18.00;99.90;;;;;;2720878;23;20485;-62
2021/07/27 16:15:53;;;;;;;8.00;6.73;;;19.80;99.90;;;;;;3144887;23;20476;-64
2021/07/27 16:18:20;;;;;;;7.20;6.60;;;20.00;99.90;;;;;;4982109;28;20495;-64
2021/07/27 16:20:49;;;;;;;7.67;6.87;;;20.10;99.90;;;;;;4980105;28;20453;-63
2021/07/27 16:23:16;;;;;;;8.47;6.13;;;20.00;99.90;;;;;;4978409;28;20440;-61
2021/07/27 16:25:46;;;;;;;7.50;6.80;;;19.70;99.90;;;;;;4978948;28;20469;-61
2021/07/27 16:28:36;;;;;;;8.50;6.70;;;19.40;99.90;;;;;;4980726;28;20791;-61
2021/07/27 16:31:04;;;;;;;7.00;6.40;;;19.40;99.90;;;;;;4980238;28;20766;-61
2021/07/27 16:33:32;;;;;;;6.57;6.07;;;19.50;99.90;;;;;;4980829;28;20501;-61
2021/07/27 16:35:59;;;;;;;6.70;6.10;;;19.60;99.90;;;;;;4980484;28;20699;-61
2021/07/27 16:38:29;;;;;;;6.67;6.17;;;19.80;99.90;;;;;;4980626;28;20738;-61
2021/07/27 17:18:15;;;;;;;9.13;7.87;;;18.30;99.90;;;;;;5493367;23;21041;-70
2021/07/27 17:55:14;;;;;;;9.53;8.17;;;18.60;99.90;;;;;;5288415;23;20774;-68
2021/07/27 17:57:47;;;;;;;9.47;8.53;;;18.60;99.90;;;;;;4978804;28;20466;-70
2021/07/27 18:00:15;;;;;;;9.83;8.83;;;18.60;99.90;;;;;;4979581;28;20605;-70
2021/07/27 18:42:54;;;;;;;9.97;9.03;;;17.90;99.90;;;;;;5044666;23;20469;-71
2021/07/27 18:45:29;;;;;;;11.60;10.40;;;17.80;99.90;;;;;;4978284;28;20750;-71
2021/07/27 18:47:57;;;;;;;11.50;10.30;;;17.80;99.90;;;;;;4978286;28;20618;-71
2021/07/27 18:50:26;;;;;;;11.37;9.80;;;17.80;99.90;;;;;;4978626;28;20842;-71
2021/07/27 18:52:56;;;;;;;11.50;10.30;;;17.90;99.90;;;;;;4978232;28;20461;-69
2021/07/27 18:55:41;;;;;;;10.73;9.73;;;17.90;99.90;;;;;;4977305;28;20501;-69
2021/07/27 18:58:10;;;;;;;12.40;11.10;;;17.80;99.90;;;;;;4977495;28;20554;-69
2021/07/27 19:00:40;;;;;;;12.03;10.90;;;17.80;99.90;;;;;;4978720;28;20457;-69
2021/07/27 19:03:09;;;;;;;13.17;11.87;;;17.80;99.90;;;;;;4973649;28;20478;-69
2021/07/27 19:05:36;;;;;;;13.00;11.30;;;17.90;99.90;;;;;;4970395;28;20576;-69
2021/07/27 19:08:04;;;;;;;11.73;10.63;;;17.80;99.90;;;;;;4977576;28;20552;-69
2021/07/27 19:10:33;;;;;;;13.97;11.03;;;17.80;99.90;;;;;;4982620;28;20458;-70
2021/07/27 19:13:00;;;;;;;12.10;11.00;;;17.90;99.90;;;;;;4984784;28;20485;-70
2021/07/27 19:15:32;;;;;;;11.93;10.73;;;17.90;99.90;;;;;;4984484;28;20469;-70
2021/07/27 19:17:59;;;;;;;12.03;10.70;;;17.90;99.90;;;;;;4984492;28;20465;-70
2021/07/27 19:20:26;;;;;;;12.37;11.27;;;17.90;99.90;;;;;;4984653;28;20466;-70
2021/07/27 20:03:50;;;;;;;11.27;10.17;;;17.30;99.90;;;;;;967905;23;21945;-70
2021/07/27 20:06:20;;;;;;;13.73;11.57;;;17.30;99.90;;;;;;4922613;29;20477;-71
2021/07/27 20:08:47;;;;;;;14.70;13.17;;;17.30;99.90;;;;;;4927302;29;20520;-70
2021/07/27 20:11:14;;;;;;;11.50;10.40;;;17.20;99.90;;;;;;4927157;29;20778;-70
2021/07/27 20:13:44;;;;;;;15.87;12.37;;;17.20;99.90;;;;;;4926035;29;20527;-69
2021/07/27 20:16:14;;;;;;;15.93;12.93;;;17.20;99.90;;;;;;4926428;29;20893;-69
2021/07/27 20:18:43;;;;;;;12.90;11.67;;;17.20;99.90;;;;;;4926626;29;20537;-70
2021/07/27 20:21:12;;;;;;;11.30;10.23;;;17.10;99.90;;;;;;4922558;29;20563;-70
2021/07/27 20:23:39;;;;;;;12.50;11.30;;;17.10;99.90;;;;;;4924039;29;20468;-69
2021/07/27 20:26:15;;;;;;;12.40;11.10;;;17.10;99.90;;;;;;4922732;29;20443;-69
2021/07/27 20:28:45;;;;;;;11.57;10.37;;;17.00;99.90;;;;;;4923451;29;20956;-69
2021/07/27 20:31:15;;;;;;;11.50;10.30;;;17.00;99.90;;;;;;4922820;29;20468;-70
2021/07/27 20:33:44;;;;;;;11.83;10.63;;;17.00;99.90;;;;;;4923259;29;20464;-70
2021/07/27 20:36:17;;;;;;;12.40;11.30;;;16.90;99.90;;;;;;4923833;29;20474;-70
2021/07/27 20:38:45;;;;;;;12.10;10.90;;;16.90;99.90;;;;;;4916807;29;20447;-70
2021/07/27 20:41:12;;;;;;;11.50;10.50;;;16.90;99.90;;;;;;4903895;29;20477;-70
2021/07/27 20:43:39;;;;;;;11.60;10.20;;;16.90;99.90;;;;;;4904425;29;20521;-70
2021/07/27 20:46:07;;;;;;;12.17;11.00;;;16.80;99.90;;;;;;4911694;29;20473;-69
2021/07/27 20:48:33;;;;;;;10.80;9.80;;;16.80;99.90;;;;;;4917840;29;20512;-70
2021/07/27 20:51:01;;;;;;;10.77;9.60;;;16.90;99.90;;;;;;4903781;29;20541;-69
2021/07/27 20:53:31;;;;;;;11.60;10.40;;;16.90;99.90;;;;;;4914115;29;20464;-69
2021/07/27 20:56:05;;;;;;;10.67;9.53;;;16.80;99.90;;;;;;4923174;29;20894;-70
2021/07/27 20:58:32;;;;;;;10.70;9.70;;;16.70;99.90;;;;;;4923085;29;20865;-70
2021/07/27 21:01:00;;;;;;;10.87;9.00;;;16.80;99.90;;;;;;4920679;29;20488;-70
2021/07/27 21:03:29;;;;;;;10.70;9.60;;;16.70;99.90;;;;;;4902424;29;20537;-71
2021/07/27 21:05:56;;;;;;;10.07;9.17;;;16.70;99.90;;;;;;4915551;29;20505;-70
2021/07/27 21:08:23;;;;;;;11.50;10.30;;;16.60;99.90;;;;;;4922159;29;20497;-70
2021/07/27 21:10:55;;;;;;;10.93;9.63;;;16.60;99.90;;;;;;4921292;29;20468;-70
2021/07/27 21:13:22;;;;;;;10.77;9.67;;;16.60;99.90;;;;;;4922538;29;20528;-70
2021/07/27 21:15:51;;;;;;;13.67;11.87;;;16.60;99.90;;;;;;4922812;29;20468;-69
2021/07/27 21:18:21;;;;;;;11.93;10.27;;;16.50;99.90;;;;;;4922560;29;20790;-70
2021/07/27 21:20:49;;;;;;;10.60;9.60;;;16.60;99.90;;;;;;4922725;29;20465;-69
2021/07/27 21:23:17;;;;;;;10.70;9.70;;;16.50;99.90;;;;;;4921742;29;20469;-70
2021/07/27 21:25:46;;;;;;;12.17;10.97;;;16.50;99.90;;;;;;4922004;29;20472;-70
2021/07/27 22:08:00;;;;;;;13.30;12.03;;;16.10;99.90;;;;;;4966901;28;20494;-72
2021/07/27 22:10:27;;;;;;;11.83;10.50;;;16.10;99.90;;;;;;4978415;28;20457;-70
2021/07/27 22:13:00;;;;;;;13.07;11.87;;;16.10;99.90;;;;;;4977942;28;20489;-70
2021/07/27 22:15:27;;;;;;;12.00;10.90;;;16.00;99.90;;;;;;4970159;28;20466;-70
2021/07/27 22:17:54;;;;;;;14.30;10.37;;;16.00;99.90;;;;;;4977841;28;20470;-70
2021/07/27 22:20:21;;;;;;;12.27;11.07;;;16.00;99.90;;;;;;4978867;28;20536;-71
2021/07/27 22:59:41;;;;;;;12.83;11.63;;;15.80;99.90;;;;;;2501151;23;20803;-71
2021/07/27 23:02:17;;;;;;;13.40;11.37;;;15.80;99.90;;;;;;4957938;29;20830;-71
2021/07/27 23:04:44;;;;;;;14.10;10.90;;;15.80;99.90;;;;;;4949177;28;20481;-71
2021/07/27 23:07:14;;;;;;;13.40;11.10;;;15.80;99.90;;;;;;4954060;29;20506;-72
2021/07/27 23:09:43;;;;;;;12.07;10.97;;;15.80;99.90;;;;;;4953296;29;20514;-71
2021/07/27 23:12:10;;;;;;;14.20;12.40;;;15.80;99.90;;;;;;4958723;29;20470;-72
2021/07/27 23:14:40;;;;;;;12.43;11.17;;;15.80;99.90;;;;;;4946379;29;20530;-72
2021/07/27 23:17:07;;;;;;;12.83;11.53;;;15.70;99.90;;;;;;4957609;29;20482;-71
2021/07/27 23:19:34;;;;;;;12.50;10.10;;;15.80;99.90;;;;;;4958901;29;20470;-71
2021/07/27 23:22:07;;;;;;;14.37;11.67;;;15.80;99.90;;;;;;4957681;29;20534;-71
2021/07/27 23:24:34;;;;;;;13.30;12.00;;;15.70;99.90;;;;;;4958652;29;20837;-72
2021/07/27 23:27:05;;;;;;;13.30;10.80;;;15.80;99.90;;;;;;4957950;29;20475;-71
2021/07/27 23:29:33;;;;;;;12.40;11.17;;;15.70;99.90;;;;;;4956489;29;20522;-70
2021/07/27 23:32:02;;;;;;;11.50;10.30;;;15.70;99.90;;;;;;4959296;29;20913;-71
2021/07/27 23:34:29;;;;;;;11.50;10.17;;;15.70;99.90;;;;;;4957349;29;20963;-71
2021/07/27 23:36:56;;;;;;;11.27;10.20;;;15.70;99.90;;;;;;4947567;29;20488;-71
2021/07/27 23:39:23;;;;;;;13.73;12.43;;;15.70;99.90;;;;;;4954924;29;20479;-71
2021/07/27 23:41:50;;;;;;;15.93;10.73;;;15.70;99.90;;;;;;4958876;29;20466;-71
2021/07/27 23:44:19;;;;;;;12.23;11.07;;;15.70;99.90;;;;;;4957749;29;20820;-71
2021/07/27 23:46:46;;;;;;;13.63;11.27;;;15.60;99.90;;;;;;4957737;29;20974;-71
2021/07/27 23:49:15;;;;;;;13.03;11.10;;;15.60;99.90;;;;;;4958025;29;20586;-71
2021/07/27 23:51:42;;;;;;;12.60;11.33;;;15.60;99.90;;;;;;4957363;29;20529;-71
2021/07/27 23:54:08;;;;;;;11.33;10.23;;;15.60;99.90;;;;;;4958255;29;20478;-71
2021/07/27 23:56:35;;;;;;;14.03;11.13;;;15.70;99.90;;;;;;4958043;28;20579;-71
2021/07/27 23:59:03;;;;;;;13.67;11.90;;;15.70;99.90;;;;;;4961442;29;20463;-72
